createdAt,value
2018-04-23T00:02:51.049Z,76.4
2018-04-23T00:19:34.853Z,77.2
2018-04-23T00:36:18.779Z,76.8
2018-04-23T00:53:02.885Z,76.0
2018-04-23T01:09:46.349Z,77.2
2018-04-23T01:26:29.709Z,77.6
2018-04-23T01:43:12.136Z,78.0
2018-04-23T01:59:55.501Z,78.8
2018-04-23T02:16:37.777Z,78.8
2018-04-23T02:33:20.437Z,79.2
2018-04-23T02:50:03.773Z,79.6
2018-04-23T03:06:46.133Z,79.6
2018-04-23T03:23:28.224Z,80.0
2018-04-23T03:40:11.142Z,80.4
2018-04-23T03:56:52.916Z,80.0
2018-04-23T04:13:35.988Z,79.6
2018-04-23T04:30:17.404Z,80.0
2018-04-23T04:46:59.462Z,79.6
2018-04-23T05:03:42.417Z,78.8
2018-04-23T05:20:24.794Z,78.4
2018-04-23T05:37:07.113Z,78.0
2018-04-23T05:53:49.699Z,77.2
2018-04-23T06:10:32.340Z,76.0
2018-04-23T06:27:15.112Z,75.2
2018-04-23T06:43:58.613Z,73.6
2018-04-23T07:00:42.183Z,73.2
2018-04-23T07:17:25.025Z,72.8
2018-04-23T07:34:07.379Z,72.4
2018-04-23T07:50:50.965Z,71.2
2018-04-23T08:07:33.974Z,70.4
2018-04-23T08:20:56.137Z,68.4
2018-04-23T08:34:20.296Z,67.6
2018-04-23T08:51:04.523Z,65.6
2018-04-23T09:04:27.760Z,65.2
2018-04-23T09:14:30.756Z,63.2
2018-04-23T09:31:16.370Z,63.2
2018-04-23T09:37:58.936Z,61.2
2018-04-23T09:54:44.084Z,59.6
2018-04-23T10:08:09.421Z,57.2
2018-04-23T10:24:54.869Z,56.8
2018-04-23T10:41:42.238Z,56.0
2018-04-23T10:58:28.178Z,54.8
2018-04-23T11:15:14.099Z,54.8
2018-04-23T11:25:17.535Z,52.8
2018-04-23T11:42:05.226Z,50.8
2018-04-23T11:58:50.650Z,51.2
2018-04-23T12:15:37.916Z,50.4
2018-04-23T12:32:25.959Z,49.2
2018-04-23T12:49:12.715Z,48.4
2018-04-23T12:59:17.148Z,48.4
2018-04-23T13:16:03.806Z,48.8
2018-04-23T13:32:49.795Z,47.2
2018-04-23T13:49:36.799Z,46.4
2018-04-23T14:03:02.315Z,47.2
2018-04-23T14:19:48.868Z,46.8
2018-04-23T14:36:35.847Z,46.0
2018-04-23T14:50:01.165Z,45.2
2018-04-23T15:06:47.342Z,45.6
2018-04-23T15:23:32.848Z,45.2
2018-04-23T15:40:18.749Z,46.0
2018-04-23T15:57:04.759Z,46.0
2018-04-23T16:13:50.204Z,46.0
2018-04-23T16:30:36.130Z,46.4
2018-04-23T16:47:22.250Z,46.0
2018-04-23T17:04:09.119Z,46.4
2018-04-23T17:14:11.734Z,46.4
2018-04-23T17:20:53.656Z,46.8
2018-04-23T17:30:56.230Z,47.6
2018-04-23T17:40:58.617Z,48.4
2018-04-23T17:57:42.210Z,49.6
2018-04-23T18:14:25.610Z,50.4
2018-04-23T18:31:08.482Z,51.2
2018-04-23T18:44:30.581Z,52.0
2018-04-23T19:01:12.967Z,52.8
2018-04-23T19:17:54.877Z,52.8
2018-04-23T19:34:36.715Z,53.2
2018-04-23T19:51:18.345Z,53.2
2018-04-23T20:07:59.811Z,54.0
2018-04-23T20:24:41.722Z,54.8
2018-04-23T20:41:22.062Z,55.6
2018-04-23T20:58:02.858Z,55.6
2018-04-23T21:14:43.497Z,56.0
2018-04-23T21:31:24.027Z,56.8
2018-04-23T21:48:04.607Z,57.6
2018-04-23T22:04:44.801Z,58.0
2018-04-23T22:21:24.974Z,58.8
2018-04-23T22:38:04.980Z,59.6
2018-04-23T22:54:45.080Z,59.6
2018-04-23T23:11:26.025Z,60.0
2018-04-23T23:28:06.228Z,60.4
2018-04-23T23:44:46.678Z,60.4
